createdAt,value
2019-02-18T00:02:00.943Z,5.36
2019-02-18T00:07:03.385Z,5.54
2019-02-18T00:12:05.840Z,5.61
2019-02-18T00:17:08.277Z,5.52
2019-02-18T00:22:10.716Z,5.53
2019-02-18T00:27:13.149Z,5.48
2019-02-18T00:32:15.589Z,5.58
2019-02-18T00:37:24.503Z,5.60
2019-02-18T00:42:20.477Z,5.54
2019-02-18T00:47:22.912Z,5.50
2019-02-18T00:52:25.348Z,5.50
2019-02-18T00:57:27.791Z,5.52
2019-02-18T01:02:30.240Z,5.56
2019-02-18T01:07:35.124Z,5.53
2019-02-18T01:12:35.112Z,5.63
2019-02-18T01:17:37.559Z,5.26
2019-02-18T01:22:39.993Z,5.17
2019-02-18T01:27:42.430Z,5.25
2019-02-18T01:32:44.877Z,5.37
2019-02-18T01:37:47.333Z,5.35
2019-02-18T01:42:49.781Z,5.45
2019-02-18T01:47:52.247Z,5.42
2019-02-18T01:52:54.704Z,5.39
2019-02-18T01:57:57.139Z,5.32
2019-02-18T02:02:59.594Z,5.24
2019-02-18T02:08:02.031Z,5.21
2019-02-18T02:13:32.256Z,5.06
2019-02-18T02:18:34.710Z,4.92
2019-02-18T02:23:37.155Z,4.84
2019-02-18T02:28:39.618Z,4.92
2019-02-18T02:33:42.057Z,5.09
2019-02-18T02:38:44.499Z,5.12
2019-02-18T02:43:46.951Z,5.20
2019-02-18T02:48:49.394Z,5.24
2019-02-18T02:53:51.836Z,5.24
2019-02-18T02:58:54.293Z,5.27
2019-02-18T03:03:56.727Z,5.29
2019-02-18T03:08:59.179Z,5.25
2019-02-18T03:14:01.607Z,5.32
2019-02-18T03:19:04.055Z,5.23
2019-02-18T03:24:06.762Z,5.16
2019-02-18T03:29:18.055Z,5.15
2019-02-18T03:34:20.502Z,5.18
2019-02-18T03:39:22.935Z,5.20
2019-02-18T03:44:25.380Z,5.12
2019-02-18T03:49:27.821Z,5.05
2019-02-18T03:54:30.277Z,4.94
2019-02-18T03:59:32.720Z,4.90
2019-02-18T04:04:35.166Z,4.94
2019-02-18T04:09:37.606Z,4.90
2019-02-18T04:14:40.221Z,4.87
2019-02-18T04:19:42.669Z,4.78
2019-02-18T04:24:45.126Z,4.68
2019-02-18T04:29:47.564Z,4.65
2019-02-18T04:34:50.055Z,4.63
2019-02-18T04:39:52.596Z,4.61
2019-02-18T04:44:55.027Z,4.55
2019-02-18T04:49:57.489Z,4.53
2019-02-18T04:54:59.968Z,4.53
2019-02-18T05:00:02.402Z,4.47
2019-02-18T05:05:04.849Z,4.45
2019-02-18T05:10:10.394Z,4.35
2019-02-18T05:15:12.842Z,4.31
2019-02-18T05:20:15.277Z,4.39
2019-02-18T05:25:17.721Z,4.43
2019-02-18T05:30:20.193Z,4.38
2019-02-18T05:35:22.621Z,4.36
2019-02-18T05:40:25.061Z,4.26
2019-02-18T05:45:27.508Z,4.27
2019-02-18T05:50:29.947Z,4.18
2019-02-18T05:55:32.391Z,4.10
2019-02-18T06:00:34.830Z,4.13
2019-02-18T06:05:37.260Z,4.05
2019-02-18T06:10:39.710Z,4.07
2019-02-18T06:15:42.160Z,4.05
2019-02-18T06:20:44.617Z,4.06
2019-02-18T06:25:47.055Z,4.02
2019-02-18T06:30:49.501Z,4.06
2019-02-18T06:35:51.953Z,4.05
2019-02-18T06:40:54.430Z,4.03
2019-02-18T06:46:09.196Z,4.10
2019-02-18T06:51:11.626Z,4.20
2019-02-18T06:56:14.062Z,4.33
2019-02-18T07:01:19.380Z,4.51
2019-02-18T07:06:21.956Z,4.72
2019-02-18T07:11:24.408Z,4.89
2019-02-18T07:16:26.865Z,5.13
2019-02-18T07:21:29.335Z,5.30
2019-02-18T07:26:31.786Z,5.51
2019-02-18T07:31:34.241Z,5.63
2019-02-18T07:36:36.710Z,5.90
2019-02-18T07:41:39.279Z,6.24
2019-02-18T07:46:41.752Z,6.41
2019-02-18T07:51:44.199Z,6.73
2019-02-18T07:56:46.637Z,6.93
2019-02-18T08:01:49.081Z,7.28
2019-02-18T08:06:51.524Z,7.59
2019-02-18T08:11:53.972Z,7.92
2019-02-18T08:16:56.415Z,8.28
2019-02-18T08:21:58.851Z,8.64
2019-02-18T08:27:01.322Z,9.10
2019-02-18T08:32:03.809Z,9.38
2019-02-18T08:37:06.237Z,9.37
2019-02-18T08:42:08.677Z,9.63
2019-02-18T08:47:11.107Z,10.26
2019-02-18T08:52:13.554Z,10.29
2019-02-18T08:57:16.003Z,10.34
2019-02-18T09:02:18.503Z,11.31
2019-02-18T09:07:21.015Z,11.57
2019-02-18T09:12:23.394Z,11.51
2019-02-18T09:17:25.833Z,11.29
2019-02-18T09:22:40.638Z,11.40
2019-02-18T09:27:43.101Z,11.40
2019-02-18T09:32:45.648Z,11.63
2019-02-18T09:37:48.093Z,11.77
2019-02-18T09:42:50.654Z,11.91
2019-02-18T09:47:54.334Z,11.91
2019-02-18T09:52:55.551Z,11.88
2019-02-18T09:57:58.002Z,11.95
2019-02-18T10:03:00.460Z,12.06
2019-02-18T10:08:02.901Z,12.00
2019-02-18T10:13:05.375Z,12.13
2019-02-18T10:18:07.813Z,12.20
2019-02-18T10:23:10.295Z,12.34
2019-02-18T10:28:12.750Z,12.35
2019-02-18T10:33:15.199Z,12.47
2019-02-18T10:38:17.637Z,12.61
2019-02-18T10:43:20.087Z,12.68
2019-02-18T10:48:22.540Z,12.84
2019-02-18T10:53:24.990Z,12.94
2019-02-18T10:58:27.438Z,12.93
2019-02-18T11:03:29.919Z,13.25
2019-02-18T11:08:32.360Z,13.39
2019-02-18T11:13:34.839Z,13.61
2019-02-18T11:18:37.294Z,13.78
2019-02-18T11:23:39.741Z,13.81
2019-02-18T11:28:42.185Z,13.95
2019-02-18T11:33:44.635Z,14.04
2019-02-18T11:38:47.086Z,14.20
2019-02-18T11:43:49.520Z,14.29
2019-02-18T11:48:52.072Z,14.47
2019-02-18T11:53:54.522Z,14.62
2019-02-18T11:58:56.965Z,14.55
2019-02-18T12:03:59.406Z,14.87
2019-02-18T12:09:04.449Z,15.02
2019-02-18T12:14:06.909Z,15.00
2019-02-18T12:19:09.362Z,15.02
2019-02-18T12:24:11.803Z,15.18
2019-02-18T12:29:14.249Z,15.43
2019-02-18T12:34:16.710Z,15.42
2019-02-18T12:39:19.178Z,15.41
2019-02-18T12:44:21.705Z,15.05
2019-02-18T12:49:24.151Z,15.01
2019-02-18T12:54:26.603Z,15.18
2019-02-18T12:59:29.372Z,15.44
2019-02-18T13:04:32.414Z,15.16
2019-02-18T13:09:34.857Z,15.12
2019-02-18T13:14:37.326Z,15.38
2019-02-18T13:19:39.822Z,15.18
2019-02-18T13:24:42.367Z,14.69
2019-02-18T13:29:44.814Z,15.30
2019-02-18T13:34:47.247Z,14.91
2019-02-18T13:39:49.693Z,15.15
2019-02-18T13:44:52.216Z,15.40
2019-02-18T13:49:54.670Z,15.26
2019-02-18T13:54:57.124Z,14.97
2019-02-18T13:59:59.594Z,14.76
2019-02-18T14:05:02.046Z,14.46
2019-02-18T14:10:04.492Z,14.91
2019-02-18T14:15:06.959Z,14.82
2019-02-18T14:20:13.990Z,14.94
2019-02-18T14:25:14.605Z,14.85
2019-02-18T14:30:17.052Z,14.87
2019-02-18T14:35:19.487Z,14.44
2019-02-18T14:40:21.926Z,14.27
2019-02-18T14:45:24.387Z,14.78
2019-02-18T14:50:26.842Z,14.35
2019-02-18T14:55:29.264Z,13.99
2019-02-18T15:00:31.706Z,13.88
2019-02-18T15:05:34.155Z,13.70
2019-02-18T15:10:36.597Z,13.62
2019-02-18T15:15:39.050Z,13.60
2019-02-18T15:20:41.504Z,13.96
2019-02-18T15:25:43.944Z,13.58
2019-02-18T15:30:46.379Z,13.28
2019-02-18T15:35:48.844Z,13.12
2019-02-18T15:40:51.306Z,13.07
2019-02-18T15:45:53.775Z,13.44
2019-02-18T15:50:56.229Z,13.37
2019-02-18T15:55:58.681Z,13.30
2019-02-18T16:01:01.129Z,12.99
2019-02-18T16:06:03.586Z,12.75
2019-02-18T16:11:06.962Z,12.50
2019-02-18T16:16:09.417Z,12.28
2019-02-18T16:21:11.852Z,12.07
2019-02-18T16:26:14.295Z,11.88
2019-02-18T16:31:16.761Z,11.69
2019-02-18T16:36:19.230Z,11.45
2019-02-18T16:41:21.672Z,11.23
2019-02-18T16:46:24.144Z,11.04
2019-02-18T16:51:26.598Z,10.77
2019-02-18T16:56:29.043Z,10.52
2019-02-18T17:01:31.521Z,10.38
2019-02-18T17:06:33.987Z,10.23
2019-02-18T17:11:36.439Z,10.04
2019-02-18T17:16:38.882Z,9.97
2019-02-18T17:21:41.333Z,9.84
2019-02-18T17:26:43.804Z,9.57
2019-02-18T17:31:46.252Z,9.51
2019-02-18T17:36:48.709Z,9.34
2019-02-18T17:41:51.169Z,9.16
2019-02-18T17:46:53.629Z,9.02
2019-02-18T17:51:56.082Z,8.94
2019-02-18T17:56:58.546Z,8.85
2019-02-18T18:02:00.960Z,8.80
2019-02-18T18:07:03.436Z,8.52
2019-02-18T18:12:05.892Z,8.39
2019-02-18T18:17:08.331Z,8.30
2019-02-18T18:22:10.776Z,8.22
2019-02-18T18:27:13.209Z,8.25
2019-02-18T18:32:15.665Z,8.20
2019-02-18T18:37:18.111Z,8.21
2019-02-18T18:42:20.584Z,8.14
2019-02-18T18:47:23.036Z,8.05
2019-02-18T18:52:25.484Z,8.00
2019-02-18T18:57:27.920Z,7.82
2019-02-18T19:02:30.370Z,7.72
2019-02-18T19:07:32.826Z,7.59
2019-02-18T19:12:35.308Z,7.60
2019-02-18T19:17:37.744Z,7.50
2019-02-18T19:22:40.209Z,7.47
2019-02-18T19:27:42.683Z,7.35
2019-02-18T19:32:45.128Z,7.27
2019-02-18T19:37:47.578Z,7.13
2019-02-18T19:42:50.052Z,7.18
2019-02-18T19:47:52.509Z,7.21
2019-02-18T19:52:54.966Z,7.11
2019-02-18T19:57:57.425Z,6.86
2019-02-18T20:02:59.872Z,6.90
2019-02-18T20:08:02.327Z,6.84
2019-02-18T20:13:04.803Z,6.66
2019-02-18T20:18:07.273Z,6.50
2019-02-18T20:23:09.728Z,6.53
2019-02-18T20:28:12.187Z,6.83
2019-02-18T20:33:14.644Z,6.78
2019-02-18T20:38:17.097Z,6.78
2019-02-18T20:43:19.567Z,6.68
2019-02-18T20:48:22.039Z,6.61
2019-02-18T20:53:24.507Z,6.34
2019-02-18T20:58:26.948Z,6.35
2019-02-18T21:03:29.408Z,6.16
2019-02-18T21:08:31.881Z,5.99
2019-02-18T21:13:34.354Z,5.95
2019-02-18T21:18:36.809Z,5.89
2019-02-18T21:23:39.297Z,5.82
2019-02-18T21:28:41.722Z,5.91
2019-02-18T21:33:44.167Z,5.84
2019-02-18T21:38:46.670Z,5.72
2019-02-18T21:43:49.143Z,5.55
2019-02-18T21:48:51.595Z,5.49
2019-02-18T21:53:54.034Z,5.50
2019-02-18T21:58:57.212Z,5.34
2019-02-18T22:03:58.926Z,5.28
2019-02-18T22:09:01.375Z,5.31
2019-02-18T22:14:03.860Z,5.22
2019-02-18T22:19:06.390Z,5.05
2019-02-18T22:24:09.394Z,4.88
2019-02-18T22:29:11.876Z,5.06
2019-02-18T22:34:14.324Z,5.05
2019-02-18T22:39:16.762Z,4.89
2019-02-18T22:44:19.195Z,4.77
2019-02-18T22:49:22.053Z,4.74
2019-02-18T22:54:24.512Z,4.71
2019-02-18T22:59:26.973Z,4.66
2019-02-18T23:04:29.414Z,4.66
2019-02-18T23:09:31.861Z,4.76
2019-02-18T23:14:34.305Z,4.49
2019-02-18T23:19:36.750Z,4.40
2019-02-18T23:24:56.798Z,4.38
2019-02-18T23:29:59.234Z,4.36
2019-02-18T23:35:01.683Z,4.32
2019-02-18T23:40:04.133Z,4.43
2019-02-18T23:45:06.576Z,4.28
2019-02-18T23:50:09.022Z,4.21
2019-02-18T23:55:11.474Z,4.17
